sensor_id;sensor_type;location;lat;lon;timestamp;temperature;humidity
41694;DHT22;27377;50.666;9.150;2023-02-19T00:00:05;8.70;99.90
41694;DHT22;27377;50.666;9.150;2023-02-19T00:02:38;8.70;99.90
41694;DHT22;27377;50.666;9.150;2023-02-19T00:05:04;8.70;99.90
41694;DHT22;27377;50.666;9.150;2023-02-19T00:07:30;8.70;99.90
41694;DHT22;27377;50.666;9.150;2023-02-19T00:09:56;8.70;99.90
41694;DHT22;27377;50.666;9.150;2023-02-19T00:12:23;8.70;99.90
41694;DHT22;27377;50.666;9.150;2023-02-19T00:14:49;8.70;99.90
41694;DHT22;27377;50.666;9.150;2023-02-19T00:17:14;8.60;99.90
41694;DHT22;27377;50.666;9.150;2023-02-19T00:19:40;8.70;99.90
41694;DHT22;27377;50.666;9.150;2023-02-19T00:22:05;8.70;99.90
41694;DHT22;27377;50.666;9.150;2023-02-19T00:24:31;8.60;99.90
41694;DHT22;27377;50.666;9.150;2023-02-19T00:26:57;8.70;99.90
41694;DHT22;27377;50.666;9.150;2023-02-19T00:29:26;8.70;99.90
41694;DHT22;27377;50.666;9.150;2023-02-19T00:31:51;8.70;99.90
41694;DHT22;27377;50.666;9.150;2023-02-19T00:34:17;8.70;99.90
41694;DHT22;27377;50.666;9.150;2023-02-19T00:36:42;8.70;99.90
41694;DHT22;27377;50.666;9.150;2023-02-19T00:39:19;8.70;99.90
41694;DHT22;27377;50.666;9.150;2023-02-19T00:41:48;8.70;99.90
41694;DHT22;27377;50.666;9.150;2023-02-19T00:44:15;8.70;99.90
41694;DHT22;27377;50.666;9.150;2023-02-19T00:46:50;8.70;99.90
41694;DHT22;27377;50.666;9.150;2023-02-19T00:49:21;8.70;99.90
41694;DHT22;27377;50.666;9.150;2023-02-19T00:51:48;8.70;99.90
41694;DHT22;27377;50.666;9.150;2023-02-19T00:54:14;8.60;99.90
41694;DHT22;27377;50.666;9.150;2023-02-19T00:56:40;8.70;99.90
41694;DHT22;27377;50.666;9.150;2023-02-19T00:59:05;8.70;99.90
41694;DHT22;27377;50.666;9.150;2023-02-19T01:01:39;8.60;99.90
41694;DHT22;27377;50.666;9.150;2023-02-19T01:04:11;8.60;99.90
41694;DHT22;27377;50.666;9.150;2023-02-19T01:06:37;8.70;99.90
41694;DHT22;27377;50.666;9.150;2023-02-19T01:09:04;8.70;99.90
41694;DHT22;27377;50.666;9.150;2023-02-19T01:11:30;8.70;99.90
41694;DHT22;27377;50.666;9.150;2023-02-19T01:13:59;8.70;99.90
41694;DHT22;27377;50.666;9.150;2023-02-19T01:16:25;8.60;99.90
41694;DHT22;27377;50.666;9.150;2023-02-19T01:18:52;8.60;99.90
41694;DHT22;27377;50.666;9.150;2023-02-19T01:21:21;8.60;99.90
41694;DHT22;27377;50.666;9.150;2023-02-19T01:23:51;8.70;99.90
41694;DHT22;27377;50.666;9.150;2023-02-19T01:26:22;8.60;99.90
41694;DHT22;27377;50.666;9.150;2023-02-19T01:28:49;8.60;99.90
41694;DHT22;27377;50.666;9.150;2023-02-19T01:31:20;8.70;99.90
41694;DHT22;27377;50.666;9.150;2023-02-19T01:33:48;8.70;99.90
41694;DHT22;27377;50.666;9.150;2023-02-19T01:36:15;8.70;99.90
41694;DHT22;27377;50.666;9.150;2023-02-19T01:38:40;8.70;99.90
41694;DHT22;27377;50.666;9.150;2023-02-19T01:41:09;8.70;99.90
41694;DHT22;27377;50.666;9.150;2023-02-19T01:46:27;8.70;99.90
41694;DHT22;27377;50.666;9.150;2023-02-19T01:48:53;8.70;99.90
41694;DHT22;27377;50.666;9.150;2023-02-19T01:51:21;8.70;99.90
41694;DHT22;27377;50.666;9.150;2023-02-19T01:53:51;8.70;99.90
41694;DHT22;27377;50.666;9.150;2023-02-19T01:56:19;8.70;99.90
41694;DHT22;27377;50.666;9.150;2023-02-19T01:58:45;8.70;99.90
41694;DHT22;27377;50.666;9.150;2023-02-19T02:01:11;8.60;99.90
41694;DHT22;27377;50.666;9.150;2023-02-19T02:03:38;8.70;99.90
41694;DHT22;27377;50.666;9.150;2023-02-19T02:06:10;8.70;99.90
41694;DHT22;27377;50.666;9.150;2023-02-19T02:08:38;8.70;99.90
41694;DHT22;27377;50.666;9.150;2023-02-19T02:11:22;8.70;99.90
41694;DHT22;27377;50.666;9.150;2023-02-19T02:13:49;8.70;99.90
41694;DHT22;27377;50.666;9.150;2023-02-19T02:21:44;8.70;99.90
41694;DHT22;27377;50.666;9.150;2023-02-19T02:30:00;8.70;99.90
41694;DHT22;27377;50.666;9.150;2023-02-19T02:32:34;8.70;99.90
41694;DHT22;27377;50.666;9.150;2023-02-19T02:35:10;8.70;99.90
41694;DHT22;27377;50.666;9.150;2023-02-19T02:37:39;8.60;99.90
41694;DHT22;27377;50.666;9.150;2023-02-19T02:40:07;8.70;99.90
41694;DHT22;27377;50.666;9.150;2023-02-19T02:42:34;8.70;99.90
41694;DHT22;27377;50.666;9.150;2023-02-19T02:45:32;8.70;99.90
41694;DHT22;27377;50.666;9.150;2023-02-19T02:50:37;8.70;99.90
41694;DHT22;27377;50.666;9.150;2023-02-19T02:53:50;8.70;99.90
41694;DHT22;27377;50.666;9.150;2023-02-19T02:56:33;8.70;99.90
41694;DHT22;27377;50.666;9.150;2023-02-19T02:59:01;8.70;99.90
41694;DHT22;27377;50.666;9.150;2023-02-19T03:08:14;8.70;99.90
41694;DHT22;27377;50.666;9.150;2023-02-19T03:13:41;8.70;99.90
41694;DHT22;27377;50.666;9.150;2023-02-19T03:16:28;8.70;99.90
41694;DHT22;27377;50.666;9.150;2023-02-19T03:19:15;8.70;99.90
41694;DHT22;27377;50.666;9.150;2023-02-19T03:24:22;8.70;99.90
41694;DHT22;27377;50.666;9.150;2023-02-19T03:27:08;8.70;99.90
41694;DHT22;27377;50.666;9.150;2023-02-19T03:29:36;8.70;99.90
41694;DHT22;27377;50.666;9.150;2023-02-19T03:32:08;8.70;99.90
41694;DHT22;27377;50.666;9.150;2023-02-19T03:34:37;8.70;99.90
41694;DHT22;27377;50.666;9.150;2023-02-19T03:37:12;8.70;99.90
41694;DHT22;27377;50.666;9.150;2023-02-19T03:39:38;8.70;99.90
41694;DHT22;27377;50.666;9.150;2023-02-19T03:42:38;8.70;99.90
41694;DHT22;27377;50.666;9.150;2023-02-19T03:45:25;8.70;99.90
41694;DHT22;27377;50.666;9.150;2023-02-19T03:48:02;8.70;99.90
41694;DHT22;27377;50.666;9.150;2023-02-19T03:50:45;8.70;99.90
41694;DHT22;27377;50.666;9.150;2023-02-19T03:58:40;8.70;99.90
41694;DHT22;27377;50.666;9.150;2023-02-19T04:06:32;8.70;99.90
41694;DHT22;27377;50.666;9.150;2023-02-19T04:09:01;8.70;99.90
41694;DHT22;27377;50.666;9.150;2023-02-19T04:11:28;8.70;99.90
41694;DHT22;27377;50.666;9.150;2023-02-19T04:16:28;8.70;99.90
41694;DHT22;27377;50.666;9.150;2023-02-19T04:18:57;8.70;99.90
41694;DHT22;27377;50.666;9.150;2023-02-19T04:21:24;8.70;99.90
41694;DHT22;27377;50.666;9.150;2023-02-19T04:23:53;8.70;99.90
41694;DHT22;27377;50.666;9.150;2023-02-19T04:26:20;8.70;99.90
41694;DHT22;27377;50.666;9.150;2023-02-19T04:28:46;8.70;99.90
41694;DHT22;27377;50.666;9.150;2023-02-19T04:31:12;8.70;99.90
41694;DHT22;27377;50.666;9.150;2023-02-19T04:33:38;8.70;99.90
41694;DHT22;27377;50.666;9.150;2023-02-19T04:36:04;8.70;99.90
41694;DHT22;27377;50.666;9.150;2023-02-19T04:38:31;8.70;99.90
41694;DHT22;27377;50.666;9.150;2023-02-19T04:40:56;8.70;99.90
41694;DHT22;27377;50.666;9.150;2023-02-19T04:43:22;8.70;99.90
41694;DHT22;27377;50.666;9.150;2023-02-19T04:45:47;8.70;99.90
41694;DHT22;27377;50.666;9.150;2023-02-19T04:48:13;8.60;99.90
41694;DHT22;27377;50.666;9.150;2023-02-19T04:50:39;8.70;99.90
41694;DHT22;27377;50.666;9.150;2023-02-19T04:53:05;8.70;99.90
41694;DHT22;27377;50.666;9.150;2023-02-19T04:55:31;8.70;99.90
41694;DHT22;27377;50.666;9.150;2023-02-19T04:57:56;8.60;99.90
41694;DHT22;27377;50.666;9.150;2023-02-19T05:00:22;8.70;99.90
41694;DHT22;27377;50.666;9.150;2023-02-19T05:02:48;8.70;99.90
41694;DHT22;27377;50.666;9.150;2023-02-19T05:05:13;8.70;99.90
41694;DHT22;27377;50.666;9.150;2023-02-19T05:07:39;8.70;99.90
41694;DHT22;27377;50.666;9.150;2023-02-19T05:10:05;8.70;99.90
41694;DHT22;27377;50.666;9.150;2023-02-19T05:12:30;8.70;99.90
41694;DHT22;27377;50.666;9.150;2023-02-19T05:14:56;8.70;99.90
41694;DHT22;27377;50.666;9.150;2023-02-19T05:17:21;8.70;99.90
41694;DHT22;27377;50.666;9.150;2023-02-19T05:19:47;8.70;99.90
41694;DHT22;27377;50.666;9.150;2023-02-19T05:22:13;8.70;99.90
41694;DHT22;27377;50.666;9.150;2023-02-19T05:24:38;8.70;99.90
41694;DHT22;27377;50.666;9.150;2023-02-19T05:27:04;8.70;99.90
41694;DHT22;27377;50.666;9.150;2023-02-19T05:29:30;8.60;99.90
41694;DHT22;27377;50.666;9.150;2023-02-19T05:31:56;8.70;99.90
41694;DHT22;27377;50.666;9.150;2023-02-19T05:34:21;8.70;99.90
41694;DHT22;27377;50.666;9.150;2023-02-19T05:36:47;8.70;99.90
41694;DHT22;27377;50.666;9.150;2023-02-19T05:39:12;8.70;99.90
41694;DHT22;27377;50.666;9.150;2023-02-19T05:41:38;8.70;99.90
41694;DHT22;27377;50.666;9.150;2023-02-19T05:44:04;8.70;99.90
41694;DHT22;27377;50.666;9.150;2023-02-19T05:46:29;8.70;99.90
41694;DHT22;27377;50.666;9.150;2023-02-19T05:48:55;8.60;99.90
41694;DHT22;27377;50.666;9.150;2023-02-19T05:51:23;8.70;99.90
41694;DHT22;27377;50.666;9.150;2023-02-19T05:53:50;8.60;99.90
41694;DHT22;27377;50.666;9.150;2023-02-19T05:56:25;8.70;99.90
41694;DHT22;27377;50.666;9.150;2023-02-19T05:58:52;8.70;99.90
41694;DHT22;27377;50.666;9.150;2023-02-19T06:01:19;8.60;99.90
41694;DHT22;27377;50.666;9.150;2023-02-19T06:03:45;8.70;99.90
41694;DHT22;27377;50.666;9.150;2023-02-19T06:06:15;8.60;99.90
41694;DHT22;27377;50.666;9.150;2023-02-19T06:08:41;8.60;99.90
41694;DHT22;27377;50.666;9.150;2023-02-19T06:11:07;8.60;99.90
41694;DHT22;27377;50.666;9.150;2023-02-19T06:13:32;8.70;99.90
41694;DHT22;27377;50.666;9.150;2023-02-19T06:15:58;8.60;99.90
41694;DHT22;27377;50.666;9.150;2023-02-19T06:18:23;8.60;99.90
41694;DHT22;27377;50.666;9.150;2023-02-19T06:20:49;8.70;99.90
41694;DHT22;27377;50.666;9.150;2023-02-19T06:23:14;8.70;99.90
41694;DHT22;27377;50.666;9.150;2023-02-19T06:25:40;8.60;99.90
41694;DHT22;27377;50.666;9.150;2023-02-19T06:28:06;8.70;99.90
41694;DHT22;27377;50.666;9.150;2023-02-19T06:30:33;8.60;99.90
41694;DHT22;27377;50.666;9.150;2023-02-19T06:32:59;8.60;99.90
41694;DHT22;27377;50.666;9.150;2023-02-19T06:35:24;8.60;99.90
41694;DHT22;27377;50.666;9.150;2023-02-19T06:37:50;8.70;99.90
41694;DHT22;27377;50.666;9.150;2023-02-19T06:40:16;8.70;99.90
41694;DHT22;27377;50.666;9.150;2023-02-19T06:42:41;8.70;99.90
41694;DHT22;27377;50.666;9.150;2023-02-19T06:45:07;8.70;99.90
41694;DHT22;27377;50.666;9.150;2023-02-19T06:47:33;8.70;99.90
41694;DHT22;27377;50.666;9.150;2023-02-19T06:49:58;8.70;99.90
41694;DHT22;27377;50.666;9.150;2023-02-19T06:52:25;8.70;99.90
41694;DHT22;27377;50.666;9.150;2023-02-19T06:54:51;8.70;99.90
41694;DHT22;27377;50.666;9.150;2023-02-19T06:57:17;8.60;99.90
41694;DHT22;27377;50.666;9.150;2023-02-19T06:59:43;8.70;99.90
41694;DHT22;27377;50.666;9.150;2023-02-19T07:02:10;8.70;99.90
41694;DHT22;27377;50.666;9.150;2023-02-19T07:04:39;8.70;99.90
41694;DHT22;27377;50.666;9.150;2023-02-19T07:07:05;8.70;99.90
41694;DHT22;27377;50.666;9.150;2023-02-19T07:09:30;8.70;99.90
41694;DHT22;27377;50.666;9.150;2023-02-19T07:11:56;8.70;99.90
41694;DHT22;27377;50.666;9.150;2023-02-19T07:14:25;8.70;99.90
41694;DHT22;27377;50.666;9.150;2023-02-19T07:16:54;8.70;99.90
41694;DHT22;27377;50.666;9.150;2023-02-19T07:19:20;8.70;99.90
41694;DHT22;27377;50.666;9.150;2023-02-19T07:21:46;8.70;99.90
41694;DHT22;27377;50.666;9.150;2023-02-19T07:24:12;8.70;99.90
41694;DHT22;27377;50.666;9.150;2023-02-19T07:26:38;8.60;99.90
41694;DHT22;27377;50.666;9.150;2023-02-19T07:29:06;8.60;99.90
41694;DHT22;27377;50.666;9.150;2023-02-19T07:31:38;8.60;99.90
41694;DHT22;27377;50.666;9.150;2023-02-19T07:34:06;8.60;99.90
41694;DHT22;27377;50.666;9.150;2023-02-19T07:36:32;8.60;99.90
41694;DHT22;27377;50.666;9.150;2023-02-19T07:38:58;8.60;99.90
41694;DHT22;27377;50.666;9.150;2023-02-19T07:41:25;8.60;99.90
41694;DHT22;27377;50.666;9.150;2023-02-19T07:43:52;8.60;99.90
41694;DHT22;27377;50.666;9.150;2023-02-19T07:46:18;8.60;99.90
41694;DHT22;27377;50.666;9.150;2023-02-19T07:48:47;8.60;99.90
41694;DHT22;27377;50.666;9.150;2023-02-19T07:51:15;8.60;99.90
41694;DHT22;27377;50.666;9.150;2023-02-19T07:53:45;8.70;99.90
41694;DHT22;27377;50.666;9.150;2023-02-19T07:56:14;8.70;99.90
41694;DHT22;27377;50.666;9.150;2023-02-19T07:58:40;8.60;99.90
41694;DHT22;27377;50.666;9.150;2023-02-19T08:01:13;8.60;99.90
41694;DHT22;27377;50.666;9.150;2023-02-19T08:03:43;8.60;99.90
41694;DHT22;27377;50.666;9.150;2023-02-19T08:06:10;8.60;99.90
41694;DHT22;27377;50.666;9.150;2023-02-19T08:08:39;8.60;99.90
41694;DHT22;27377;50.666;9.150;2023-02-19T08:11:05;8.60;99.90
41694;DHT22;27377;50.666;9.150;2023-02-19T08:13:50;8.60;99.90
41694;DHT22;27377;50.666;9.150;2023-02-19T08:16:17;8.60;99.90
41694;DHT22;27377;50.666;9.150;2023-02-19T08:18:45;8.70;99.90
41694;DHT22;27377;50.666;9.150;2023-02-19T08:21:14;8.60;99.90
41694;DHT22;27377;50.666;9.150;2023-02-19T08:23:43;8.60;99.90
41694;DHT22;27377;50.666;9.150;2023-02-19T08:26:10;8.60;99.90
41694;DHT22;27377;50.666;9.150;2023-02-19T08:28:36;8.60;99.90
41694;DHT22;27377;50.666;9.150;2023-02-19T08:31:04;8.60;99.90
41694;DHT22;27377;50.666;9.150;2023-02-19T08:33:30;8.60;99.90
41694;DHT22;27377;50.666;9.150;2023-02-19T08:35:58;8.60;99.90
41694;DHT22;27377;50.666;9.150;2023-02-19T08:38:25;8.60;99.90
41694;DHT22;27377;50.666;9.150;2023-02-19T08:40:50;8.60;99.90
41694;DHT22;27377;50.666;9.150;2023-02-19T08:43:16;8.70;99.90
41694;DHT22;27377;50.666;9.150;2023-02-19T08:45:44;8.60;99.90
41694;DHT22;27377;50.666;9.150;2023-02-19T08:48:10;8.60;99.90
41694;DHT22;27377;50.666;9.150;2023-02-19T08:50:37;8.60;99.90
41694;DHT22;27377;50.666;9.150;2023-02-19T08:53:04;8.60;99.90
41694;DHT22;27377;50.666;9.150;2023-02-19T08:55:30;8.60;99.90
41694;DHT22;27377;50.666;9.150;2023-02-19T08:57:55;8.60;99.90
41694;DHT22;27377;50.666;9.150;2023-02-19T09:00:21;8.70;99.90
41694;DHT22;27377;50.666;9.150;2023-02-19T09:02:48;8.60;99.90
41694;DHT22;27377;50.666;9.150;2023-02-19T09:05:13;8.60;99.90
41694;DHT22;27377;50.666;9.150;2023-02-19T09:07:39;8.60;99.90
41694;DHT22;27377;50.666;9.150;2023-02-19T09:10:05;8.60;99.90
41694;DHT22;27377;50.666;9.150;2023-02-19T09:12:31;8.60;99.90
41694;DHT22;27377;50.666;9.150;2023-02-19T09:14:58;8.60;99.90
41694;DHT22;27377;50.666;9.150;2023-02-19T09:17:23;8.60;99.90
41694;DHT22;27377;50.666;9.150;2023-02-19T09:19:49;8.60;99.90
41694;DHT22;27377;50.666;9.150;2023-02-19T09:22:15;8.60;99.90
41694;DHT22;27377;50.666;9.150;2023-02-19T09:24:42;8.60;99.90
41694;DHT22;27377;50.666;9.150;2023-02-19T09:27:07;8.60;99.90
41694;DHT22;27377;50.666;9.150;2023-02-19T09:29:34;8.70;99.90
41694;DHT22;27377;50.666;9.150;2023-02-19T09:32:00;8.70;99.90
41694;DHT22;27377;50.666;9.150;2023-02-19T09:34:29;8.70;99.90
41694;DHT22;27377;50.666;9.150;2023-02-19T09:36:54;8.70;99.90
41694;DHT22;27377;50.666;9.150;2023-02-19T09:39:33;8.80;99.90
41694;DHT22;27377;50.666;9.150;2023-02-19T09:42:26;8.70;99.90
41694;DHT22;27377;50.666;9.150;2023-02-19T09:44:57;8.80;99.90
41694;DHT22;27377;50.666;9.150;2023-02-19T09:47:29;8.80;99.90
41694;DHT22;27377;50.666;9.150;2023-02-19T09:50:04;8.80;99.90
41694;DHT22;27377;50.666;9.150;2023-02-19T09:52:44;8.80;99.90
41694;DHT22;27377;50.666;9.150;2023-02-19T09:55:32;8.80;99.90
41694;DHT22;27377;50.666;9.150;2023-02-19T09:58:01;8.80;99.90
41694;DHT22;27377;50.666;9.150;2023-02-19T10:00:32;8.80;99.90
41694;DHT22;27377;50.666;9.150;2023-02-19T10:03:22;8.80;99.90
41694;DHT22;27377;50.666;9.150;2023-02-19T10:05:51;8.80;99.90
41694;DHT22;27377;50.666;9.150;2023-02-19T10:08:19;8.80;99.90
41694;DHT22;27377;50.666;9.150;2023-02-19T10:10:45;8.80;99.90
41694;DHT22;27377;50.666;9.150;2023-02-19T10:13:21;8.80;99.90
41694;DHT22;27377;50.666;9.150;2023-02-19T10:15:49;8.80;99.90
41694;DHT22;27377;50.666;9.150;2023-02-19T10:18:21;8.80;99.90
41694;DHT22;27377;50.666;9.150;2023-02-19T10:20:48;8.80;99.90
41694;DHT22;27377;50.666;9.150;2023-02-19T10:23:17;8.80;99.90
41694;DHT22;27377;50.666;9.150;2023-02-19T10:25:49;8.80;99.90
41694;DHT22;27377;50.666;9.150;2023-02-19T10:28:21;8.80;99.90
41694;DHT22;27377;50.666;9.150;2023-02-19T10:30:52;8.80;99.90
41694;DHT22;27377;50.666;9.150;2023-02-19T10:33:19;8.80;99.90
41694;DHT22;27377;50.666;9.150;2023-02-19T10:36:02;8.80;99.90
41694;DHT22;27377;50.666;9.150;2023-02-19T10:38:32;8.90;99.90
41694;DHT22;27377;50.666;9.150;2023-02-19T10:41:12;8.90;99.90
41694;DHT22;27377;50.666;9.150;2023-02-19T10:43:42;8.90;99.90
41694;DHT22;27377;50.666;9.150;2023-02-19T10:46:34;8.90;99.90
41694;DHT22;27377;50.666;9.150;2023-02-19T10:49:27;8.90;99.90
41694;DHT22;27377;50.666;9.150;2023-02-19T10:51:56;8.90;99.90
41694;DHT22;27377;50.666;9.150;2023-02-19T10:54:29;8.80;99.90
41694;DHT22;27377;50.666;9.150;2023-02-19T10:57:23;8.90;99.90
41694;DHT22;27377;50.666;9.150;2023-02-19T11:00:00;8.90;99.90
41694;DHT22;27377;50.666;9.150;2023-02-19T11:02:28;8.80;99.90
41694;DHT22;27377;50.666;9.150;2023-02-19T11:05:15;8.80;99.90
41694;DHT22;27377;50.666;9.150;2023-02-19T11:08:01;8.90;99.90
41694;DHT22;27377;50.666;9.150;2023-02-19T11:10:33;8.80;99.90
41694;DHT22;27377;50.666;9.150;2023-02-19T11:13:02;8.90;99.90
41694;DHT22;27377;50.666;9.150;2023-02-19T11:15:31;8.80;99.90
41694;DHT22;27377;50.666;9.150;2023-02-19T11:25:59;8.90;99.90
41694;DHT22;27377;50.666;9.150;2023-02-19T11:28:36;9.00;99.90
41694;DHT22;27377;50.666;9.150;2023-02-19T11:33:55;8.90;99.90
41694;DHT22;27377;50.666;9.150;2023-02-19T11:38:58;8.90;99.90
41694;DHT22;27377;50.666;9.150;2023-02-19T11:48:08;9.10;99.90
41694;DHT22;27377;50.666;9.150;2023-02-19T11:55:50;9.20;99.90
41694;DHT22;27377;50.666;9.150;2023-02-19T11:58:33;9.20;99.90
41694;DHT22;27377;50.666;9.150;2023-02-19T12:04:17;9.10;99.90
41694;DHT22;27377;50.666;9.150;2023-02-19T12:09:42;9.20;99.90
41694;DHT22;27377;50.666;9.150;2023-02-19T12:12:21;9.20;99.90
41694;DHT22;27377;50.666;9.150;2023-02-19T12:17:45;9.20;99.90
41694;DHT22;27377;50.666;9.150;2023-02-19T12:20:28;9.20;99.90
41694;DHT22;27377;50.666;9.150;2023-02-19T12:45:18;9.30;99.90
41694;DHT22;27377;50.666;9.150;2023-02-19T12:48:11;9.30;99.90
41694;DHT22;27377;50.666;9.150;2023-02-19T12:50:42;9.30;99.90
41694;DHT22;27377;50.666;9.150;2023-02-19T12:55:43;9.30;99.90
41694;DHT22;27377;50.666;9.150;2023-02-19T12:58:14;9.30;99.90
41694;DHT22;27377;50.666;9.150;2023-02-19T13:00:49;9.30;99.90
41694;DHT22;27377;50.666;9.150;2023-02-19T13:03:44;9.40;99.90
41694;DHT22;27377;50.666;9.150;2023-02-19T13:06:29;9.30;99.90
41694;DHT22;27377;50.666;9.150;2023-02-19T13:09:47;9.30;99.90
41694;DHT22;27377;50.666;9.150;2023-02-19T13:11:48;9.30;99.90
41694;DHT22;27377;50.666;9.150;2023-02-19T13:14:45;9.30;99.90
41694;DHT22;27377;50.666;9.150;2023-02-19T13:17:37;9.30;99.90
41694;DHT22;27377;50.666;9.150;2023-02-19T13:20:28;9.40;99.90
41694;DHT22;27377;50.666;9.150;2023-02-19T13:26:18;9.30;99.90
41694;DHT22;27377;50.666;9.150;2023-02-19T13:29:24;9.30;99.90
41694;DHT22;27377;50.666;9.150;2023-02-19T13:37:37;9.30;99.90
41694;DHT22;27377;50.666;9.150;2023-02-19T13:40:53;9.30;99.90
41694;DHT22;27377;50.666;9.150;2023-02-19T13:46:02;9.30;99.90
41694;DHT22;27377;50.666;9.150;2023-02-19T13:48:36;9.30;99.90
41694;DHT22;27377;50.666;9.150;2023-02-19T13:59:37;9.30;99.90
41694;DHT22;27377;50.666;9.150;2023-02-19T14:04:51;9.30;99.90
41694;DHT22;27377;50.666;9.150;2023-02-19T14:07:33;9.20;99.90
41694;DHT22;27377;50.666;9.150;2023-02-19T14:09:59;9.20;99.90
41694;DHT22;27377;50.666;9.150;2023-02-19T14:12:36;9.20;99.90
41694;DHT22;27377;50.666;9.150;2023-02-19T14:15:36;9.20;99.90
41694;DHT22;27377;50.666;9.150;2023-02-19T14:18:43;9.20;99.90
41694;DHT22;27377;50.666;9.150;2023-02-19T14:21:25;9.20;99.90
41694;DHT22;27377;50.666;9.150;2023-02-19T14:23:58;9.20;99.90
41694;DHT22;27377;50.666;9.150;2023-02-19T14:26:25;9.20;99.90
41694;DHT22;27377;50.666;9.150;2023-02-19T14:28:53;9.20;99.90
41694;DHT22;27377;50.666;9.150;2023-02-19T14:31:29;9.20;99.90
41694;DHT22;27377;50.666;9.150;2023-02-19T14:33:59;9.20;99.90
41694;DHT22;27377;50.666;9.150;2023-02-19T14:36:46;9.20;99.90
41694;DHT22;27377;50.666;9.150;2023-02-19T14:39:30;9.20;99.90
41694;DHT22;27377;50.666;9.150;2023-02-19T14:42:03;9.20;99.90
41694;DHT22;27377;50.666;9.150;2023-02-19T14:44:34;9.20;99.90
41694;DHT22;27377;50.666;9.150;2023-02-19T14:47:05;9.20;99.90
41694;DHT22;27377;50.666;9.150;2023-02-19T14:49:44;9.20;99.90
41694;DHT22;27377;50.666;9.150;2023-02-19T14:54:57;9.20;99.90
41694;DHT22;27377;50.666;9.150;2023-02-19T14:57:40;9.30;99.90
41694;DHT22;27377;50.666;9.150;2023-02-19T15:02:48;9.30;99.90
41694;DHT22;27377;50.666;9.150;2023-02-19T15:05:21;9.20;99.90
41694;DHT22;27377;50.666;9.150;2023-02-19T15:07:48;9.30;99.90
41694;DHT22;27377;50.666;9.150;2023-02-19T15:10:14;9.20;99.90
41694;DHT22;27377;50.666;9.150;2023-02-19T15:12:52;9.20;99.90
41694;DHT22;27377;50.666;9.150;2023-02-19T15:15:24;9.20;99.90
41694;DHT22;27377;50.666;9.150;2023-02-19T15:17:52;9.20;99.90
41694;DHT22;27377;50.666;9.150;2023-02-19T15:20:30;9.20;99.90
41694;DHT22;27377;50.666;9.150;2023-02-19T15:22:57;9.20;99.90
41694;DHT22;27377;50.666;9.150;2023-02-19T15:25:37;9.20;99.90
41694;DHT22;27377;50.666;9.150;2023-02-19T15:28:41;9.20;99.90
41694;DHT22;27377;50.666;9.150;2023-02-19T15:31:13;9.20;99.90
41694;DHT22;27377;50.666;9.150;2023-02-19T15:33:39;9.20;99.90
41694;DHT22;27377;50.666;9.150;2023-02-19T15:36:06;9.20;99.90
41694;DHT22;27377;50.666;9.150;2023-02-19T15:38:33;9.20;99.90
41694;DHT22;27377;50.666;9.150;2023-02-19T15:40:58;9.10;99.90
41694;DHT22;27377;50.666;9.150;2023-02-19T15:43:32;9.10;99.90
41694;DHT22;27377;50.666;9.150;2023-02-19T15:46:05;9.10;99.90
41694;DHT22;27377;50.666;9.150;2023-02-19T15:48:39;9.10;99.90
41694;DHT22;27377;50.666;9.150;2023-02-19T15:51:22;9.10;99.90
41694;DHT22;27377;50.666;9.150;2023-02-19T15:53:54;9.00;99.90
41694;DHT22;27377;50.666;9.150;2023-02-19T15:56:27;9.00;99.90
41694;DHT22;27377;50.666;9.150;2023-02-19T15:59:11;9.00;99.90
41694;DHT22;27377;50.666;9.150;2023-02-19T16:01:40;9.00;99.90
41694;DHT22;27377;50.666;9.150;2023-02-19T16:04:15;9.00;99.90
41694;DHT22;27377;50.666;9.150;2023-02-19T16:06:54;9.00;99.90
41694;DHT22;27377;50.666;9.150;2023-02-19T16:09:28;9.00;99.90
41694;DHT22;27377;50.666;9.150;2023-02-19T16:12:00;9.00;99.90
41694;DHT22;27377;50.666;9.150;2023-02-19T16:19:28;8.90;99.90
41694;DHT22;27377;50.666;9.150;2023-02-19T16:21:56;8.90;99.90
41694;DHT22;27377;50.666;9.150;2023-02-19T16:26:51;8.80;99.90
41694;DHT22;27377;50.666;9.150;2023-02-19T16:29:23;8.80;99.90
41694;DHT22;27377;50.666;9.150;2023-02-19T16:31:52;8.90;99.90
41694;DHT22;27377;50.666;9.150;2023-02-19T16:34:44;8.80;99.90
41694;DHT22;27377;50.666;9.150;2023-02-19T16:37:34;8.80;99.90
41694;DHT22;27377;50.666;9.150;2023-02-19T16:45:17;8.80;99.90
41694;DHT22;27377;50.666;9.150;2023-02-19T16:47:43;8.80;99.90
41694;DHT22;27377;50.666;9.150;2023-02-19T16:50:15;8.80;99.90
41694;DHT22;27377;50.666;9.150;2023-02-19T16:52:55;8.80;99.90
41694;DHT22;27377;50.666;9.150;2023-02-19T16:55:21;8.80;99.90
41694;DHT22;27377;50.666;9.150;2023-02-19T16:57:47;8.80;99.90
41694;DHT22;27377;50.666;9.150;2023-02-19T17:00:21;8.80;99.90
41694;DHT22;27377;50.666;9.150;2023-02-19T17:02:49;8.80;99.90
41694;DHT22;27377;50.666;9.150;2023-02-19T17:05:16;8.80;99.90
41694;DHT22;27377;50.666;9.150;2023-02-19T17:07:42;8.80;99.90
41694;DHT22;27377;50.666;9.150;2023-02-19T17:10:14;8.70;99.90
41694;DHT22;27377;50.666;9.150;2023-02-19T17:12:40;8.70;99.90
41694;DHT22;27377;50.666;9.150;2023-02-19T17:15:06;8.70;99.90
41694;DHT22;27377;50.666;9.150;2023-02-19T17:17:31;8.70;99.90
41694;DHT22;27377;50.666;9.150;2023-02-19T17:19:57;8.70;99.90
41694;DHT22;27377;50.666;9.150;2023-02-19T17:22:23;8.70;99.90
41694;DHT22;27377;50.666;9.150;2023-02-19T17:24:48;8.70;99.90
41694;DHT22;27377;50.666;9.150;2023-02-19T17:27:14;8.70;99.90
41694;DHT22;27377;50.666;9.150;2023-02-19T17:29:39;8.60;99.90
41694;DHT22;27377;50.666;9.150;2023-02-19T17:32:05;8.70;99.90
41694;DHT22;27377;50.666;9.150;2023-02-19T17:34:31;8.70;99.90
41694;DHT22;27377;50.666;9.150;2023-02-19T17:36:56;8.70;99.90
41694;DHT22;27377;50.666;9.150;2023-02-19T17:39:22;8.70;99.90
41694;DHT22;27377;50.666;9.150;2023-02-19T17:41:49;8.70;99.90
41694;DHT22;27377;50.666;9.150;2023-02-19T17:44:15;8.70;99.90
41694;DHT22;27377;50.666;9.150;2023-02-19T17:46:41;8.70;99.90
41694;DHT22;27377;50.666;9.150;2023-02-19T17:49:07;8.70;99.90
41694;DHT22;27377;50.666;9.150;2023-02-19T17:51:33;8.70;99.90
41694;DHT22;27377;50.666;9.150;2023-02-19T17:53:59;8.70;99.90
41694;DHT22;27377;50.666;9.150;2023-02-19T17:56:26;8.60;99.90
41694;DHT22;27377;50.666;9.150;2023-02-19T17:58:53;8.60;99.90
41694;DHT22;27377;50.666;9.150;2023-02-19T18:01:19;8.60;99.90
41694;DHT22;27377;50.666;9.150;2023-02-19T18:03:44;8.60;99.90
41694;DHT22;27377;50.666;9.150;2023-02-19T18:06:10;8.60;99.90
41694;DHT22;27377;50.666;9.150;2023-02-19T18:08:36;8.60;99.90
41694;DHT22;27377;50.666;9.150;2023-02-19T18:11:02;8.60;99.90
41694;DHT22;27377;50.666;9.150;2023-02-19T18:13:28;8.60;99.90
41694;DHT22;27377;50.666;9.150;2023-02-19T18:15:53;8.60;99.90
41694;DHT22;27377;50.666;9.150;2023-02-19T18:18:19;8.60;99.90
41694;DHT22;27377;50.666;9.150;2023-02-19T18:20:45;8.60;99.90
41694;DHT22;27377;50.666;9.150;2023-02-19T18:23:10;8.60;99.90
41694;DHT22;27377;50.666;9.150;2023-02-19T18:25:36;8.60;99.90
41694;DHT22;27377;50.666;9.150;2023-02-19T18:28:01;8.60;99.90